createdAt,value
2019-04-11T00:02:08.838Z,93.50
2019-04-11T00:04:38.520Z,94.10
2019-04-11T00:07:08.434Z,94.20
2019-04-11T00:09:38.766Z,93.90
2019-04-11T00:12:08.883Z,94.00
2019-04-11T00:14:40.026Z,93.90
2019-04-11T00:17:10.028Z,94.20
2019-04-11T00:19:39.908Z,94.10
2019-04-11T00:22:11.102Z,94.50
2019-04-11T00:24:40.940Z,95.00
2019-04-11T00:27:10.811Z,94.70
2019-04-11T00:29:40.746Z,94.70
2019-04-11T00:32:11.125Z,94.60
2019-04-11T00:34:42.717Z,94.50
2019-04-11T00:37:12.726Z,94.30
2019-04-11T00:39:43.645Z,94.20
2019-04-11T00:42:14.483Z,94.20
2019-04-11T00:44:45.257Z,93.70
2019-04-11T00:47:15.168Z,93.20
2019-04-11T00:49:44.979Z,93.60
2019-04-11T00:52:14.689Z,93.50
2019-04-11T00:54:44.398Z,93.80
2019-04-11T00:57:14.897Z,94.20
2019-04-11T00:59:44.738Z,94.50
2019-04-11T01:02:15.604Z,94.30
2019-04-11T01:04:45.426Z,94.70
2019-04-11T01:07:15.000Z,94.90
2019-04-11T01:09:44.710Z,94.90
2019-04-11T01:12:14.418Z,94.80
2019-04-11T01:14:44.027Z,94.40
2019-04-11T01:17:14.843Z,94.60
2019-04-11T01:19:44.766Z,94.80
2019-04-11T01:22:14.783Z,94.90
2019-04-11T01:24:44.392Z,94.90
2019-04-11T01:27:14.114Z,95.00
2019-04-11T01:29:44.052Z,95.00
2019-04-11T01:32:13.990Z,94.70
2019-04-11T01:34:44.626Z,95.30
2019-04-11T01:37:15.445Z,95.10
2019-04-11T01:39:47.391Z,94.80
2019-04-11T01:42:17.694Z,95.10
2019-04-11T01:44:47.616Z,95.10
2019-04-11T01:47:18.863Z,95.00
2019-04-11T01:49:48.473Z,95.10
2019-04-11T01:52:18.232Z,95.00
2019-04-11T01:54:48.015Z,95.00
2019-04-11T01:57:17.986Z,95.00
2019-04-11T01:59:47.948Z,95.60
2019-04-11T02:02:22.742Z,95.20
2019-04-11T02:05:00.745Z,95.30
2019-04-11T02:07:31.701Z,95.10
2019-04-11T02:10:02.389Z,95.00
2019-04-11T02:12:33.271Z,95.10
2019-04-11T02:15:03.979Z,95.20
2019-04-11T02:17:34.728Z,95.00
2019-04-11T02:20:07.019Z,95.30
2019-04-11T02:22:44.092Z,95.00
2019-04-11T02:25:24.817Z,95.00
2019-04-11T02:27:54.579Z,94.90
2019-04-11T02:30:25.614Z,94.60
2019-04-11T02:32:56.183Z,94.50
2019-04-11T02:35:26.787Z,94.20
2019-04-11T02:37:57.134Z,93.90
2019-04-11T02:40:29.954Z,94.10
2019-04-11T02:42:59.627Z,94.80
2019-04-11T02:45:42.763Z,94.90
2019-04-11T02:48:01.709Z,94.90
2019-04-11T02:50:32.227Z,94.80
2019-04-11T02:53:03.007Z,94.80
2019-04-11T02:55:33.775Z,94.80
2019-04-11T02:58:05.494Z,94.90
2019-04-11T03:00:36.037Z,94.80
2019-04-11T03:03:07.947Z,94.00
2019-04-11T03:05:39.187Z,94.10
2019-04-11T03:08:12.153Z,94.40
2019-04-11T03:10:40.973Z,94.50
2019-04-11T03:13:12.596Z,94.10
2019-04-11T03:16:00.485Z,94.20
2019-04-11T03:18:35.598Z,94.20
2019-04-11T03:20:53.162Z,94.30
2019-04-11T03:23:20.913Z,94.10
2019-04-11T03:25:49.349Z,94.50
2019-04-11T03:28:23.128Z,95.20
2019-04-11T03:31:17.248Z,95.00
2019-04-11T03:36:54.043Z,95.20
2019-04-11T03:38:51.429Z,95.40
2019-04-11T03:41:12.754Z,95.60
2019-04-11T03:43:40.936Z,95.80
2019-04-11T03:46:19.534Z,95.80
2019-04-11T03:48:44.993Z,96.30
2019-04-11T03:51:02.579Z,96.30
2019-04-11T03:53:34.311Z,96.20
2019-04-11T03:56:05.165Z,96.20
2019-04-11T03:58:34.949Z,96.20
2019-04-11T04:01:08.416Z,96.20
2019-04-11T04:03:37.274Z,96.10
2019-04-11T04:06:08.911Z,96.30
2019-04-11T04:08:39.776Z,96.00
2019-04-11T04:11:14.875Z,96.10
2019-04-11T04:13:51.830Z,96.10
2019-04-11T04:16:35.763Z,96.20
2019-04-11T04:19:01.045Z,95.80
2019-04-11T04:21:33.266Z,95.70
2019-04-11T04:24:04.180Z,95.70
2019-04-11T04:26:35.558Z,95.70
2019-04-11T04:29:05.351Z,95.90
2019-04-11T04:31:35.168Z,95.80
2019-04-11T04:34:05.080Z,95.80
2019-04-11T04:36:34.902Z,95.80
2019-04-11T04:39:06.171Z,95.90
2019-04-11T04:41:41.334Z,96.00
2019-04-11T04:44:08.632Z,96.10
2019-04-11T04:46:52.519Z,95.90
2019-04-11T04:49:11.190Z,96.00
2019-04-11T04:51:41.635Z,96.30
2019-04-11T04:54:12.104Z,96.40
2019-04-11T04:56:43.139Z,96.80
2019-04-11T04:59:14.666Z,96.40
2019-04-11T05:01:45.742Z,96.70
2019-04-11T05:04:15.829Z,96.60
2019-04-11T05:06:48.167Z,96.40
2019-04-11T05:09:17.870Z,96.70
2019-04-11T05:11:48.760Z,96.70
2019-04-11T05:14:20.840Z,96.70
2019-04-11T05:16:50.735Z,96.70
2019-04-11T05:19:21.986Z,96.60
2019-04-11T05:21:52.041Z,96.50
2019-04-11T05:24:22.816Z,96.40
2019-04-11T05:26:52.649Z,96.20
2019-04-11T05:29:22.256Z,96.00
2019-04-11T05:31:51.871Z,95.80
2019-04-11T05:34:21.472Z,96.00
2019-04-11T05:36:51.183Z,95.90
2019-04-11T05:39:20.796Z,95.90
2019-04-11T05:41:51.406Z,95.70
2019-04-11T05:44:21.138Z,95.80
2019-04-11T05:46:56.261Z,95.70
2019-04-11T05:49:36.161Z,96.10
2019-04-11T05:52:08.201Z,95.40
2019-04-11T05:54:47.947Z,95.30
2019-04-11T05:57:21.272Z,95.70
2019-04-11T05:59:50.941Z,95.60
2019-04-11T06:02:21.389Z,93.40
2019-04-11T06:04:56.176Z,92.70
2019-04-11T06:07:29.297Z,92.40
2019-04-11T06:10:07.584Z,93.50
2019-04-11T06:12:38.723Z,92.70
2019-04-11T06:15:16.027Z,93.10
2019-04-11T06:17:48.184Z,92.20
2019-04-11T06:20:25.108Z,92.80
2019-04-11T06:23:04.984Z,92.20
2019-04-11T06:25:39.089Z,91.70
2019-04-11T06:28:09.577Z,91.70
2019-04-11T06:30:57.010Z,92.20
2019-04-11T06:33:28.844Z,92.50
2019-04-11T06:36:09.619Z,91.20
2019-04-11T06:38:47.148Z,92.10
2019-04-11T06:41:22.076Z,91.40
2019-04-11T06:43:53.392Z,92.30
2019-04-11T06:46:31.321Z,91.80
2019-04-11T06:49:02.747Z,92.20
2019-04-11T06:51:33.997Z,91.80
2019-04-11T06:54:21.151Z,91.80
2019-04-11T06:56:52.257Z,91.70
2019-04-11T06:59:26.813Z,91.70
2019-04-11T07:02:08.116Z,90.90
2019-04-11T07:04:32.037Z,91.10
2019-04-11T07:07:04.388Z,91.40
2019-04-11T07:09:39.431Z,91.50
2019-04-11T07:12:24.365Z,91.10
2019-04-11T07:14:58.420Z,91.60
2019-04-11T07:17:32.227Z,91.60
2019-04-11T07:20:09.210Z,91.30
2019-04-11T07:22:57.532Z,91.00
2019-04-11T07:25:28.975Z,90.30
2019-04-11T07:28:12.235Z,90.30
2019-04-11T07:30:58.635Z,90.00
2019-04-11T07:33:33.213Z,90.60
2019-04-11T07:36:21.065Z,90.70
2019-04-11T07:38:58.880Z,89.70
2019-04-11T07:41:39.911Z,90.10
2019-04-11T07:44:15.625Z,90.30
2019-04-11T07:47:00.248Z,90.40
2019-04-11T07:49:47.160Z,90.90
2019-04-11T07:52:18.546Z,91.00
2019-04-11T07:54:48.153Z,90.70
2019-04-11T07:57:32.199Z,90.90
2019-04-11T08:00:03.761Z,90.60
2019-04-11T08:02:50.772Z,91.60
2019-04-11T08:05:22.019Z,90.90
2019-04-11T08:07:59.445Z,91.70
2019-04-11T08:10:43.735Z,90.00
2019-04-11T08:13:31.315Z,89.80
2019-04-11T08:16:20.967Z,89.20
2019-04-11T08:19:10.544Z,90.00
2019-04-11T08:22:00.853Z,90.40
2019-04-11T08:24:48.985Z,88.80
2019-04-11T08:27:27.383Z,88.90
2019-04-11T08:29:58.739Z,89.20
2019-04-11T08:32:46.430Z,88.40
2019-04-11T08:35:34.915Z,87.90
2019-04-11T08:38:16.178Z,87.80
2019-04-11T08:40:59.532Z,87.90
2019-04-11T08:43:31.207Z,87.90
2019-04-11T08:46:02.691Z,88.10
2019-04-11T08:48:37.215Z,87.40
2019-04-11T08:51:11.493Z,88.90
2019-04-11T08:53:46.895Z,90.20
2019-04-11T08:56:18.999Z,86.90
2019-04-11T08:59:13.346Z,89.90
2019-04-11T09:01:44.305Z,87.50
2019-04-11T09:04:16.797Z,89.70
2019-04-11T09:06:47.171Z,88.10
2019-04-11T09:09:24.672Z,89.20
2019-04-11T09:11:56.281Z,90.20
2019-04-11T09:14:46.869Z,88.60
2019-04-11T09:17:19.382Z,88.70
2019-04-11T09:19:55.014Z,87.10
2019-04-11T09:22:44.935Z,87.20
2019-04-11T09:25:16.334Z,84.30
2019-04-11T09:28:04.687Z,85.90
2019-04-11T09:30:43.048Z,85.90
2019-04-11T09:33:31.032Z,84.60
2019-04-11T09:36:02.373Z,88.00
2019-04-11T09:38:34.687Z,88.30
2019-04-11T09:41:06.199Z,86.10
2019-04-11T09:43:37.548Z,87.30
2019-04-11T09:46:08.796Z,87.20
2019-04-11T09:48:46.331Z,87.40
2019-04-11T09:51:34.225Z,88.80
2019-04-11T09:54:05.692Z,86.80
2019-04-11T09:56:53.983Z,88.00
2019-04-11T09:59:25.383Z,86.70
2019-04-11T10:02:14.439Z,88.50
2019-04-11T10:04:45.891Z,85.20
2019-04-11T10:07:19.787Z,83.10
2019-04-11T10:10:00.190Z,82.20
2019-04-11T10:12:40.710Z,83.70
2019-04-11T10:15:11.426Z,81.70
2019-04-11T10:17:59.052Z,85.00
2019-04-11T10:20:44.599Z,83.70
2019-04-11T10:23:18.859Z,83.80
2019-04-11T10:25:50.130Z,81.70
2019-04-11T10:28:21.724Z,82.20
2019-04-11T10:31:02.173Z,81.90
2019-04-11T10:33:39.432Z,81.50
2019-04-11T10:36:23.142Z,81.00
2019-04-11T10:38:57.388Z,81.70
2019-04-11T10:41:31.194Z,81.80
2019-04-11T10:44:01.431Z,82.60
2019-04-11T10:46:49.516Z,80.00
2019-04-11T10:49:23.654Z,79.40
2019-04-11T10:52:00.758Z,77.30
2019-04-11T10:54:36.642Z,76.90
2019-04-11T10:57:11.938Z,74.30
2019-04-11T10:59:49.108Z,78.00
2019-04-11T11:02:37.634Z,76.10
2019-04-11T11:05:10.668Z,77.70
2019-04-11T11:07:42.502Z,76.50
2019-04-11T11:10:13.979Z,78.80
2019-04-11T11:12:57.397Z,76.10
2019-04-11T11:15:28.769Z,78.00
2019-04-11T11:18:39.803Z,75.30
2019-04-11T11:20:53.913Z,76.90
2019-04-11T11:23:29.164Z,75.80
2019-04-11T11:26:04.870Z,75.90
2019-04-11T11:28:44.330Z,75.90
2019-04-11T11:31:22.385Z,76.90
2019-04-11T11:33:52.142Z,74.60
2019-04-11T11:36:39.685Z,75.70
2019-04-11T11:39:17.407Z,77.90
2019-04-11T11:42:06.095Z,78.00
2019-04-11T11:44:37.574Z,77.30
2019-04-11T11:47:17.627Z,74.50
2019-04-11T11:49:55.629Z,73.50
2019-04-11T11:52:37.633Z,73.20
2019-04-11T11:55:10.702Z,70.40
2019-04-11T11:57:42.670Z,70.90
2019-04-11T12:00:15.839Z,71.10
2019-04-11T12:02:51.226Z,68.40
2019-04-11T12:05:22.249Z,69.30
2019-04-11T12:07:54.534Z,69.00
2019-04-11T12:10:32.880Z,71.70
2019-04-11T12:13:14.683Z,71.00
2019-04-11T12:15:53.302Z,72.40
2019-04-11T12:18:46.548Z,71.20
2019-04-11T12:21:23.783Z,73.70
2019-04-11T12:24:00.763Z,72.40
2019-04-11T12:26:27.918Z,76.30
2019-04-11T12:29:01.642Z,76.40
2019-04-11T12:31:35.575Z,77.30
2019-04-11T12:34:06.064Z,77.10
2019-04-11T12:36:43.074Z,76.80
2019-04-11T12:39:28.746Z,77.10
2019-04-11T12:41:59.579Z,76.40
2019-04-11T12:44:30.873Z,75.00
2019-04-11T12:47:07.589Z,73.50
2019-04-11T12:49:37.725Z,73.80
2019-04-11T12:52:25.250Z,73.30
2019-04-11T12:54:56.499Z,73.70
2019-04-11T12:57:44.126Z,74.00
2019-04-11T13:00:18.650Z,72.90
2019-04-11T13:02:59.009Z,74.40
2019-04-11T13:05:30.345Z,72.30
2019-04-11T13:08:07.428Z,74.90
2019-04-11T13:10:38.276Z,73.30
2019-04-11T13:13:18.229Z,73.40
2019-04-11T13:15:58.688Z,69.60
2019-04-11T13:18:38.845Z,69.10
2019-04-11T13:21:14.289Z,70.50
2019-04-11T13:23:57.518Z,68.60
2019-04-11T13:26:37.571Z,68.70
2019-04-11T13:29:26.941Z,68.70
2019-04-11T13:32:07.097Z,70.30
2019-04-11T13:34:38.444Z,69.90
2019-04-11T13:37:12.352Z,70.60
2019-04-11T13:39:43.190Z,69.20
2019-04-11T13:42:32.665Z,70.30
2019-04-11T13:45:02.272Z,67.90
2019-04-11T13:47:42.326Z,70.10
2019-04-11T13:50:16.780Z,69.70
2019-04-11T13:52:53.827Z,68.90
2019-04-11T13:55:23.436Z,68.80
2019-04-11T13:58:00.313Z,69.00
2019-04-11T14:00:43.849Z,68.80
2019-04-11T14:03:17.657Z,68.80
2019-04-11T14:05:49.195Z,67.90
2019-04-11T14:08:36.738Z,67.30
2019-04-11T14:11:10.839Z,66.30
2019-04-11T14:13:42.305Z,67.20
2019-04-11T14:16:16.211Z,67.00
2019-04-11T14:18:50.322Z,65.50
2019-04-11T14:21:21.879Z,65.40
2019-04-11T14:24:11.674Z,64.70
2019-04-11T14:26:46.080Z,65.70
2019-04-11T14:29:23.059Z,64.60
2019-04-11T14:31:54.661Z,63.00
2019-04-11T14:34:34.870Z,62.80
2019-04-11T14:37:12.161Z,63.20
2019-04-11T14:39:43.408Z,63.60
2019-04-11T14:42:17.354Z,64.00
2019-04-11T14:44:48.257Z,63.60
2019-04-11T14:47:38.972Z,62.10
2019-04-11T14:50:11.152Z,62.80
2019-04-11T14:52:51.281Z,63.00
2019-04-11T14:55:22.934Z,64.60
2019-04-11T14:58:12.202Z,64.30
2019-04-11T15:00:43.010Z,65.30
2019-04-11T15:03:17.254Z,64.90
2019-04-11T15:05:54.449Z,64.70
2019-04-11T15:08:31.419Z,66.40
2019-04-11T15:11:14.346Z,64.30
2019-04-11T15:13:45.815Z,63.80
2019-04-11T15:16:24.514Z,64.60
2019-04-11T15:18:55.760Z,65.20
2019-04-11T15:21:27.007Z,65.50
2019-04-11T15:23:56.614Z,66.90
2019-04-11T15:26:33.503Z,68.60
2019-04-11T15:29:05.354Z,69.80
2019-04-11T15:31:39.535Z,68.80
2019-04-11T15:34:12.134Z,69.50
2019-04-11T15:37:00.106Z,70.30
2019-04-11T15:39:47.203Z,71.50
2019-04-11T15:42:18.449Z,73.50
2019-04-11T15:45:05.981Z,74.50
2019-04-11T15:47:37.231Z,76.70
2019-04-11T15:50:25.498Z,77.30
2019-04-11T15:52:56.919Z,78.70
2019-04-11T15:55:28.268Z,80.70
2019-04-11T15:57:58.286Z,82.50
2019-04-11T16:00:44.589Z,83.40
2019-04-11T16:03:14.401Z,81.30
2019-04-11T16:06:02.862Z,84.40
2019-04-11T16:08:38.714Z,84.30
2019-04-11T16:11:22.236Z,83.40
2019-04-11T16:13:56.196Z,83.50
2019-04-11T16:16:27.497Z,85.30
2019-04-11T16:18:58.844Z,84.90
2019-04-11T16:21:40.007Z,85.00
2019-04-11T16:24:14.238Z,84.90
2019-04-11T16:27:01.671Z,84.90
2019-04-11T16:29:38.773Z,85.40
2019-04-11T16:32:08.358Z,84.30
2019-04-11T16:34:48.277Z,84.10
2019-04-11T16:37:11.564Z,83.40
2019-04-11T16:39:50.378Z,83.10
2019-04-11T16:42:17.026Z,83.40
2019-04-11T16:44:54.815Z,82.00
2019-04-11T16:47:38.974Z,83.10
2019-04-11T16:50:08.684Z,83.40
2019-04-11T16:52:39.077Z,83.00
2019-04-11T16:55:10.680Z,84.90
2019-04-11T16:57:43.876Z,85.00
2019-04-11T17:00:14.171Z,87.10
2019-04-11T17:02:46.758Z,85.30
2019-04-11T17:05:16.675Z,85.60
2019-04-11T17:08:03.986Z,86.20
2019-04-11T17:10:51.938Z,88.30
2019-04-11T17:13:23.794Z,85.40
2019-04-11T17:15:52.891Z,84.70
2019-04-11T17:18:23.626Z,84.80
2019-04-11T17:20:53.234Z,86.50
2019-04-11T17:23:22.841Z,82.90
2019-04-11T17:25:52.989Z,84.30
2019-04-11T17:28:23.754Z,82.80
2019-04-11T17:30:55.779Z,83.20
2019-04-11T17:33:27.781Z,83.50
2019-04-11T17:35:56.104Z,82.80
2019-04-11T17:38:27.046Z,82.80
2019-04-11T17:40:56.737Z,82.40
2019-04-11T17:43:26.363Z,81.60
2019-04-11T17:45:57.705Z,82.20
2019-04-11T17:48:28.544Z,83.50
2019-04-11T17:50:58.154Z,83.10
2019-04-11T17:53:29.401Z,82.80
2019-04-11T17:55:59.111Z,83.40
2019-04-11T17:58:28.727Z,83.30
2019-04-11T18:01:05.234Z,84.60
2019-04-11T18:03:32.761Z,85.20
2019-04-11T18:06:02.354Z,85.00
2019-04-11T18:08:31.960Z,84.40
2019-04-11T18:11:02.800Z,84.40
2019-04-11T18:13:33.533Z,83.70
2019-04-11T18:16:03.146Z,84.40
2019-04-11T18:18:35.077Z,85.60
2019-04-11T18:21:06.973Z,84.70
2019-04-11T18:23:36.008Z,86.40
2019-04-11T18:26:07.095Z,85.10
2019-04-11T18:28:37.836Z,85.40
2019-04-11T18:31:07.548Z,83.50
2019-04-11T18:33:37.159Z,83.40
2019-04-11T18:36:08.773Z,84.90
2019-04-11T18:38:38.422Z,83.20
2019-04-11T18:41:08.027Z,84.40
2019-04-11T18:43:38.863Z,84.90
2019-04-11T18:46:09.905Z,84.50
2019-04-11T18:48:39.513Z,85.80
2019-04-11T18:51:09.225Z,85.50
2019-04-11T18:53:40.063Z,86.00
2019-04-11T18:56:09.668Z,85.50
2019-04-11T18:58:40.183Z,86.00
2019-04-11T19:01:13.492Z,87.50
2019-04-11T19:03:43.205Z,87.00
2019-04-11T19:06:13.707Z,87.80
2019-04-11T19:08:45.173Z,88.10
2019-04-11T19:11:16.358Z,88.80
2019-04-11T19:13:47.883Z,87.50
2019-04-11T19:16:17.490Z,87.80
2019-04-11T19:18:47.826Z,88.40
2019-04-11T19:21:21.097Z,89.50
2019-04-11T19:23:51.315Z,88.80
2019-04-11T19:26:22.883Z,88.70
2019-04-11T19:28:54.970Z,89.00
2019-04-11T19:31:27.167Z,89.90
2019-04-11T19:33:55.085Z,90.10
2019-04-11T19:36:24.795Z,90.10
2019-04-11T19:38:54.404Z,90.20
2019-04-11T19:41:24.012Z,89.90
2019-04-11T19:43:53.721Z,88.30
2019-04-11T19:46:23.737Z,89.60
2019-04-11T19:48:57.084Z,87.30
2019-04-11T19:51:28.747Z,89.70
2019-04-11T19:53:56.252Z,89.10
2019-04-11T19:56:27.502Z,88.60
2019-04-11T19:58:58.811Z,89.10
2019-04-11T20:01:28.451Z,88.40
2019-04-11T20:03:59.352Z,89.10
2019-04-11T20:06:31.663Z,87.80
2019-04-11T20:09:01.372Z,89.90
2019-04-11T20:11:34.154Z,90.20
2019-04-11T20:14:03.864Z,89.30
2019-04-11T20:16:41.511Z,90.00
2019-04-11T20:19:09.184Z,90.20
2019-04-11T20:21:40.470Z,90.40
2019-04-11T20:24:14.183Z,90.60
2019-04-11T20:26:43.584Z,91.20
2019-04-11T20:29:13.290Z,90.90
2019-04-11T20:31:42.896Z,91.20
2019-04-11T20:34:13.804Z,91.00
2019-04-11T20:36:43.429Z,90.80
2019-04-11T20:39:15.237Z,90.90
2019-04-11T20:41:44.399Z,91.60
2019-04-11T20:44:14.010Z,91.30
2019-04-11T20:46:44.741Z,89.80
2019-04-11T20:49:14.273Z,90.90
2019-04-11T20:51:43.859Z,91.30
2019-04-11T20:54:13.461Z,91.00
2019-04-11T20:56:43.073Z,91.90
2019-04-11T20:59:12.677Z,91.60
2019-04-11T21:01:42.293Z,91.70
2019-04-11T21:04:11.892Z,92.20
2019-04-11T21:06:41.500Z,91.90
2019-04-11T21:09:12.258Z,92.50
2019-04-11T21:11:41.946Z,92.30
2019-04-11T21:14:11.554Z,92.10
2019-04-11T21:16:41.164Z,93.50
2019-04-11T21:19:10.768Z,93.90
2019-04-11T21:21:40.378Z,94.00
2019-04-11T21:24:09.984Z,94.00
2019-04-11T21:26:39.593Z,93.40
2019-04-11T21:29:09.204Z,93.70
2019-04-11T21:31:38.911Z,94.10
2019-04-11T21:34:08.521Z,93.90
2019-04-11T21:36:38.330Z,94.00
2019-04-11T21:39:31.604Z,94.20
2019-04-11T21:42:01.303Z,94.40
2019-04-11T21:44:30.912Z,94.30
2019-04-11T21:47:00.622Z,94.70
2019-04-11T21:49:30.233Z,94.70
2019-04-11T21:51:59.836Z,94.70
2019-04-11T21:54:30.470Z,94.90
2019-04-11T21:57:00.083Z,94.90
2019-04-11T21:59:29.787Z,95.20
2019-04-11T22:01:59.498Z,95.10
2019-04-11T22:04:31.119Z,95.30
2019-04-11T22:07:00.895Z,95.20
2019-04-11T22:09:33.051Z,95.60
2019-04-11T22:12:07.644Z,95.20
2019-04-11T22:14:35.220Z,95.10
2019-04-11T22:17:04.932Z,95.10
2019-04-11T22:19:34.536Z,94.40
2019-04-11T22:22:04.234Z,94.40
2019-04-11T22:24:34.261Z,94.20
2019-04-11T22:27:05.406Z,94.50
2019-04-11T22:29:34.934Z,95.00
2019-04-11T22:32:04.727Z,95.00
2019-04-11T22:34:35.954Z,95.00
2019-04-11T22:37:05.989Z,95.00
2019-04-11T22:39:35.596Z,94.90
2019-04-11T22:42:05.393Z,95.00
2019-04-11T22:44:35.518Z,95.20
2019-04-11T22:47:08.041Z,95.30
2019-04-11T22:49:39.313Z,94.70
2019-04-11T22:52:11.460Z,94.20
2019-04-11T22:54:41.762Z,93.60
2019-04-11T22:57:12.212Z,93.70
2019-04-11T22:59:45.048Z,93.90
2019-04-11T23:02:18.334Z,94.10
2019-04-11T23:04:47.959Z,94.50
2019-04-11T23:07:18.395Z,94.50
2019-04-11T23:09:49.044Z,94.90
2019-04-11T23:12:19.238Z,94.90
2019-04-11T23:14:48.846Z,95.10
2019-04-11T23:17:18.452Z,95.10
2019-04-11T23:19:48.982Z,95.20
2019-04-11T23:22:18.590Z,95.40
2019-04-11T23:24:48.198Z,95.60
2019-04-11T23:27:17.807Z,95.60
2019-04-11T23:29:47.730Z,95.60
2019-04-11T23:32:18.871Z,95.30
2019-04-11T23:34:49.837Z,95.30
2019-04-11T23:37:21.126Z,95.40
2019-04-11T23:39:51.731Z,95.60
2019-04-11T23:42:21.495Z,95.80
2019-04-11T23:44:51.244Z,95.90
2019-04-11T23:47:23.095Z,96.00
2019-04-11T23:49:55.094Z,95.90
2019-04-11T23:52:26.425Z,95.10
2019-04-11T23:54:54.756Z,95.40
2019-04-11T23:57:24.364Z,95.50
2019-04-11T23:59:53.975Z,95.60
